sensor_id;sensor_type;location;lat;lon;timestamp;P1;durP1;ratioP1;P2;durP2;ratioP2
1140;SDS011;559;48.628;8.924;2024-03-08T00:00:32;119.75;;;112.50;;
1140;SDS011;559;48.628;8.924;2024-03-08T00:03:00;116.60;;;109.30;;
1140;SDS011;559;48.628;8.924;2024-03-08T00:05:27;118.50;;;110.90;;
1140;SDS011;559;48.628;8.924;2024-03-08T00:07:54;112.30;;;105.10;;
1140;SDS011;559;48.628;8.924;2024-03-08T00:10:20;112.97;;;105.82;;
1140;SDS011;559;48.628;8.924;2024-03-08T00:12:47;110.95;;;103.72;;
1140;SDS011;559;48.628;8.924;2024-03-08T00:15:14;108.70;;;101.78;;
1140;SDS011;559;48.628;8.924;2024-03-08T00:17:41;106.07;;;99.43;;
1140;SDS011;559;48.628;8.924;2024-03-08T00:20:09;109.30;;;102.47;;
1140;SDS011;559;48.628;8.924;2024-03-08T00:22:36;106.32;;;99.88;;
1140;SDS011;559;48.628;8.924;2024-03-08T00:25:03;107.78;;;100.50;;
1140;SDS011;559;48.628;8.924;2024-03-08T00:27:30;99.32;;;93.13;;
1140;SDS011;559;48.628;8.924;2024-03-08T00:29:57;99.65;;;93.40;;
1140;SDS011;559;48.628;8.924;2024-03-08T00:32:23;96.60;;;90.60;;
1140;SDS011;559;48.628;8.924;2024-03-08T00:34:50;91.90;;;85.80;;
1140;SDS011;559;48.628;8.924;2024-03-08T00:37:19;88.45;;;82.93;;
1140;SDS011;559;48.628;8.924;2024-03-08T00:39:46;87.20;;;81.82;;
1140;SDS011;559;48.628;8.924;2024-03-08T00:42:14;90.68;;;85.28;;
1140;SDS011;559;48.628;8.924;2024-03-08T00:44:41;87.43;;;82.30;;
1140;SDS011;559;48.628;8.924;2024-03-08T00:47:07;86.80;;;81.47;;
1140;SDS011;559;48.628;8.924;2024-03-08T00:49:34;90.90;;;85.20;;
1140;SDS011;559;48.628;8.924;2024-03-08T00:52:01;84.30;;;79.25;;
1140;SDS011;559;48.628;8.924;2024-03-08T00:54:29;89.47;;;84.05;;
1140;SDS011;559;48.628;8.924;2024-03-08T00:56:56;88.60;;;83.28;;
1140;SDS011;559;48.628;8.924;2024-03-08T00:59:22;86.93;;;81.43;;
1140;SDS011;559;48.628;8.924;2024-03-08T01:01:49;89.97;;;84.47;;
1140;SDS011;559;48.628;8.924;2024-03-08T01:04:15;92.07;;;86.15;;
1140;SDS011;559;48.628;8.924;2024-03-08T01:06:42;93.65;;;87.28;;
1140;SDS011;559;48.628;8.924;2024-03-08T01:09:10;96.68;;;90.60;;
1140;SDS011;559;48.628;8.924;2024-03-08T01:11:38;94.35;;;88.82;;
1140;SDS011;559;48.628;8.924;2024-03-08T01:14:05;99.28;;;92.93;;
1140;SDS011;559;48.628;8.924;2024-03-08T01:16:31;97.93;;;91.60;;
1140;SDS011;559;48.628;8.924;2024-03-08T01:18:58;99.30;;;92.93;;
1140;SDS011;559;48.628;8.924;2024-03-08T01:21:25;99.63;;;93.60;;
1140;SDS011;559;48.628;8.924;2024-03-08T01:23:51;100.28;;;94.18;;
1140;SDS011;559;48.628;8.924;2024-03-08T01:26:18;99.45;;;93.60;;
1140;SDS011;559;48.628;8.924;2024-03-08T01:28:46;102.07;;;95.53;;
1140;SDS011;559;48.628;8.924;2024-03-08T01:31:13;103.03;;;96.57;;
1140;SDS011;559;48.628;8.924;2024-03-08T01:33:39;103.78;;;97.65;;
1140;SDS011;559;48.628;8.924;2024-03-08T01:36:06;105.75;;;98.53;;
1140;SDS011;559;48.628;8.924;2024-03-08T01:38:33;104.00;;;97.50;;
1140;SDS011;559;48.628;8.924;2024-03-08T01:41:01;107.95;;;101.55;;
1140;SDS011;559;48.628;8.924;2024-03-08T01:43:28;105.70;;;99.22;;
1140;SDS011;559;48.628;8.924;2024-03-08T01:45:56;108.53;;;102.07;;
1140;SDS011;559;48.628;8.924;2024-03-08T01:48:24;106.78;;;100.20;;
1140;SDS011;559;48.628;8.924;2024-03-08T01:50:51;109.95;;;102.65;;
1140;SDS011;559;48.628;8.924;2024-03-08T01:53:19;115.50;;;108.03;;
1140;SDS011;559;48.628;8.924;2024-03-08T01:55:46;104.82;;;97.93;;
1140;SDS011;559;48.628;8.924;2024-03-08T01:58:14;108.68;;;102.00;;
1140;SDS011;559;48.628;8.924;2024-03-08T02:00:41;108.32;;;101.55;;
1140;SDS011;559;48.628;8.924;2024-03-08T02:03:10;106.97;;;100.28;;
1140;SDS011;559;48.628;8.924;2024-03-08T02:05:36;104.18;;;97.65;;
1140;SDS011;559;48.628;8.924;2024-03-08T02:08:06;110.82;;;103.13;;
1140;SDS011;559;48.628;8.924;2024-03-08T02:10:33;107.47;;;101.03;;
1140;SDS011;559;48.628;8.924;2024-03-08T02:12:59;108.05;;;101.15;;
1140;SDS011;559;48.628;8.924;2024-03-08T02:15:50;114.72;;;108.10;;
1140;SDS011;559;48.628;8.924;2024-03-08T02:18:17;113.38;;;106.65;;
1140;SDS011;559;48.628;8.924;2024-03-08T02:20:45;118.57;;;110.97;;
1140;SDS011;559;48.628;8.924;2024-03-08T02:23:12;114.80;;;107.82;;
1140;SDS011;559;48.628;8.924;2024-03-08T02:25:39;114.80;;;107.28;;
1140;SDS011;559;48.628;8.924;2024-03-08T02:28:06;119.05;;;111.85;;
1140;SDS011;559;48.628;8.924;2024-03-08T02:30:34;116.28;;;109.32;;
1140;SDS011;559;48.628;8.924;2024-03-08T02:33:00;114.72;;;107.28;;
1140;SDS011;559;48.628;8.924;2024-03-08T02:35:27;111.55;;;104.72;;
1140;SDS011;559;48.628;8.924;2024-03-08T02:37:55;109.43;;;102.72;;
1140;SDS011;559;48.628;8.924;2024-03-08T02:40:21;110.25;;;102.90;;
1140;SDS011;559;48.628;8.924;2024-03-08T02:42:48;105.60;;;99.20;;
1140;SDS011;559;48.628;8.924;2024-03-08T02:45:14;110.03;;;103.18;;
1140;SDS011;559;48.628;8.924;2024-03-08T02:47:41;106.65;;;100.15;;
1140;SDS011;559;48.628;8.924;2024-03-08T02:50:08;101.47;;;95.32;;
1140;SDS011;559;48.628;8.924;2024-03-08T02:52:34;110.93;;;103.93;;
1140;SDS011;559;48.628;8.924;2024-03-08T02:55:03;108.45;;;101.70;;
1140;SDS011;559;48.628;8.924;2024-03-08T02:57:31;105.75;;;99.07;;
1140;SDS011;559;48.628;8.924;2024-03-08T02:59:58;110.20;;;103.50;;
1140;SDS011;559;48.628;8.924;2024-03-08T03:02:25;102.72;;;95.93;;
1140;SDS011;559;48.628;8.924;2024-03-08T03:04:52;103.93;;;97.50;;
1140;SDS011;559;48.628;8.924;2024-03-08T03:07:20;105.28;;;98.88;;
1140;SDS011;559;48.628;8.924;2024-03-08T03:09:47;106.63;;;99.75;;
1140;SDS011;559;48.628;8.924;2024-03-08T03:12:15;102.25;;;95.97;;
1140;SDS011;559;48.628;8.924;2024-03-08T03:14:41;109.43;;;102.60;;
1140;SDS011;559;48.628;8.924;2024-03-08T03:17:08;105.35;;;98.68;;
1140;SDS011;559;48.628;8.924;2024-03-08T03:19:35;108.35;;;101.40;;
1140;SDS011;559;48.628;8.924;2024-03-08T03:22:01;112.05;;;104.72;;
1140;SDS011;559;48.628;8.924;2024-03-08T03:24:28;106.75;;;99.50;;
1140;SDS011;559;48.628;8.924;2024-03-08T03:26:55;107.63;;;100.30;;
1140;SDS011;559;48.628;8.924;2024-03-08T03:29:23;105.97;;;99.30;;
1140;SDS011;559;48.628;8.924;2024-03-08T03:31:50;106.03;;;99.13;;
1140;SDS011;559;48.628;8.924;2024-03-08T03:34:17;104.28;;;97.88;;
1140;SDS011;559;48.628;8.924;2024-03-08T03:36:44;108.22;;;101.32;;
1140;SDS011;559;48.628;8.924;2024-03-08T03:39:12;108.20;;;101.57;;
1140;SDS011;559;48.628;8.924;2024-03-08T03:41:41;107.72;;;100.82;;
1140;SDS011;559;48.628;8.924;2024-03-08T03:44:09;109.65;;;102.85;;
1140;SDS011;559;48.628;8.924;2024-03-08T03:46:37;110.32;;;103.20;;
1140;SDS011;559;48.628;8.924;2024-03-08T03:49:09;106.00;;;99.40;;
1140;SDS011;559;48.628;8.924;2024-03-08T03:51:35;110.75;;;103.03;;
1140;SDS011;559;48.628;8.924;2024-03-08T03:54:02;105.78;;;98.65;;
1140;SDS011;559;48.628;8.924;2024-03-08T03:56:29;110.40;;;103.05;;
1140;SDS011;559;48.628;8.924;2024-03-08T03:58:56;115.63;;;108.38;;
1140;SDS011;559;48.628;8.924;2024-03-08T04:01:23;114.13;;;106.88;;
1140;SDS011;559;48.628;8.924;2024-03-08T04:03:51;110.50;;;103.45;;
1140;SDS011;559;48.628;8.924;2024-03-08T04:06:17;107.35;;;100.65;;
1140;SDS011;559;48.628;8.924;2024-03-08T04:08:44;100.28;;;93.47;;
1140;SDS011;559;48.628;8.924;2024-03-08T04:11:10;100.15;;;93.88;;
1140;SDS011;559;48.628;8.924;2024-03-08T04:13:37;96.25;;;90.47;;
1140;SDS011;559;48.628;8.924;2024-03-08T04:16:03;97.40;;;91.13;;
1140;SDS011;559;48.628;8.924;2024-03-08T04:18:33;100.35;;;94.07;;
1140;SDS011;559;48.628;8.924;2024-03-08T04:21:02;102.57;;;96.60;;
1140;SDS011;559;48.628;8.924;2024-03-08T04:23:31;104.50;;;98.00;;
1140;SDS011;559;48.628;8.924;2024-03-08T04:26:00;109.28;;;102.75;;
1140;SDS011;559;48.628;8.924;2024-03-08T04:28:27;105.10;;;98.72;;
1140;SDS011;559;48.628;8.924;2024-03-08T04:30:53;101.03;;;94.13;;
1140;SDS011;559;48.628;8.924;2024-03-08T04:33:20;108.35;;;101.40;;
1140;SDS011;559;48.628;8.924;2024-03-08T04:35:48;106.70;;;100.35;;
1140;SDS011;559;48.628;8.924;2024-03-08T04:38:16;107.65;;;101.07;;
1140;SDS011;559;48.628;8.924;2024-03-08T04:40:43;97.47;;;91.45;;
1140;SDS011;559;48.628;8.924;2024-03-08T04:43:09;97.78;;;91.28;;
1140;SDS011;559;48.628;8.924;2024-03-08T04:45:36;92.82;;;86.85;;
1140;SDS011;559;48.628;8.924;2024-03-08T04:48:02;97.85;;;91.25;;
1140;SDS011;559;48.628;8.924;2024-03-08T04:50:29;98.00;;;91.47;;
1140;SDS011;559;48.628;8.924;2024-03-08T04:52:56;95.50;;;89.00;;
1140;SDS011;559;48.628;8.924;2024-03-08T04:55:23;101.13;;;94.68;;
1140;SDS011;559;48.628;8.924;2024-03-08T04:57:50;102.88;;;96.00;;
1140;SDS011;559;48.628;8.924;2024-03-08T05:00:16;100.28;;;93.63;;
1140;SDS011;559;48.628;8.924;2024-03-08T05:02:44;97.38;;;91.63;;
1140;SDS011;559;48.628;8.924;2024-03-08T05:05:10;100.70;;;94.40;;
1140;SDS011;559;48.628;8.924;2024-03-08T05:07:37;100.32;;;93.93;;
1140;SDS011;559;48.628;8.924;2024-03-08T05:10:04;99.88;;;93.35;;
1140;SDS011;559;48.628;8.924;2024-03-08T05:12:33;102.25;;;95.85;;
1140;SDS011;559;48.628;8.924;2024-03-08T05:14:59;101.78;;;95.30;;
1140;SDS011;559;48.628;8.924;2024-03-08T05:17:26;99.45;;;93.30;;
1140;SDS011;559;48.628;8.924;2024-03-08T05:19:53;100.68;;;94.50;;
1140;SDS011;559;48.628;8.924;2024-03-08T05:22:19;93.43;;;87.38;;
1140;SDS011;559;48.628;8.924;2024-03-08T05:24:45;96.72;;;90.82;;
1140;SDS011;559;48.628;8.924;2024-03-08T05:27:12;92.70;;;86.80;;
1140;SDS011;559;48.628;8.924;2024-03-08T05:29:40;92.03;;;86.00;;
1140;SDS011;559;48.628;8.924;2024-03-08T05:32:07;95.15;;;88.93;;
1140;SDS011;559;48.628;8.924;2024-03-08T05:34:34;91.38;;;85.65;;
1140;SDS011;559;48.628;8.924;2024-03-08T05:37:01;93.40;;;87.72;;
1140;SDS011;559;48.628;8.924;2024-03-08T05:39:28;96.68;;;90.57;;
1140;SDS011;559;48.628;8.924;2024-03-08T05:41:54;98.80;;;92.30;;
1140;SDS011;559;48.628;8.924;2024-03-08T05:44:21;95.22;;;88.72;;
1140;SDS011;559;48.628;8.924;2024-03-08T05:46:49;92.63;;;86.97;;
1140;SDS011;559;48.628;8.924;2024-03-08T05:49:15;90.85;;;84.70;;
1140;SDS011;559;48.628;8.924;2024-03-08T05:51:42;99.05;;;92.90;;
1140;SDS011;559;48.628;8.924;2024-03-08T05:54:11;96.88;;;90.85;;
1140;SDS011;559;48.628;8.924;2024-03-08T05:56:38;98.38;;;92.07;;
1140;SDS011;559;48.628;8.924;2024-03-08T05:59:07;106.47;;;99.72;;
1140;SDS011;559;48.628;8.924;2024-03-08T06:01:33;112.85;;;105.88;;
1140;SDS011;559;48.628;8.924;2024-03-08T06:04:02;115.10;;;108.15;;
1140;SDS011;559;48.628;8.924;2024-03-08T06:06:29;113.43;;;106.03;;
1140;SDS011;559;48.628;8.924;2024-03-08T06:08:56;108.13;;;100.32;;
1140;SDS011;559;48.628;8.924;2024-03-08T06:11:23;102.20;;;95.22;;
1140;SDS011;559;48.628;8.924;2024-03-08T06:13:52;102.68;;;95.80;;
1140;SDS011;559;48.628;8.924;2024-03-08T06:16:24;104.43;;;97.78;;
1140;SDS011;559;48.628;8.924;2024-03-08T06:18:54;111.30;;;103.82;;
1140;SDS011;559;48.628;8.924;2024-03-08T06:21:22;118.18;;;110.03;;
1140;SDS011;559;48.628;8.924;2024-03-08T06:23:51;109.93;;;102.78;;
1140;SDS011;559;48.628;8.924;2024-03-08T06:26:19;110.75;;;102.97;;
1140;SDS011;559;48.628;8.924;2024-03-08T06:28:47;108.75;;;100.95;;
1140;SDS011;559;48.628;8.924;2024-03-08T06:31:13;112.13;;;104.18;;
1140;SDS011;559;48.628;8.924;2024-03-08T06:33:40;111.65;;;103.80;;
1140;SDS011;559;48.628;8.924;2024-03-08T06:36:07;112.90;;;105.13;;
1140;SDS011;559;48.628;8.924;2024-03-08T06:38:38;123.07;;;114.35;;
1140;SDS011;559;48.628;8.924;2024-03-08T06:41:07;113.85;;;105.93;;
1140;SDS011;559;48.628;8.924;2024-03-08T06:43:34;115.32;;;107.72;;
1140;SDS011;559;48.628;8.924;2024-03-08T06:46:00;109.47;;;101.68;;
1140;SDS011;559;48.628;8.924;2024-03-08T06:48:28;110.63;;;102.53;;
1140;SDS011;559;48.628;8.924;2024-03-08T06:50:55;113.45;;;105.65;;
1140;SDS011;559;48.628;8.924;2024-03-08T06:53:21;117.05;;;109.05;;
1140;SDS011;559;48.628;8.924;2024-03-08T06:55:50;114.13;;;106.80;;
1140;SDS011;559;48.628;8.924;2024-03-08T06:58:17;122.97;;;114.68;;
1140;SDS011;559;48.628;8.924;2024-03-08T07:00:43;128.00;;;119.40;;
1140;SDS011;559;48.628;8.924;2024-03-08T07:03:10;123.57;;;115.60;;
1140;SDS011;559;48.628;8.924;2024-03-08T07:05:42;119.05;;;109.97;;
1140;SDS011;559;48.628;8.924;2024-03-08T07:08:08;120.78;;;111.97;;
1140;SDS011;559;48.628;8.924;2024-03-08T07:10:35;114.53;;;105.63;;
1140;SDS011;559;48.628;8.924;2024-03-08T07:13:04;119.07;;;110.80;;
1140;SDS011;559;48.628;8.924;2024-03-08T07:15:30;118.90;;;110.90;;
1140;SDS011;559;48.628;8.924;2024-03-08T07:17:57;119.03;;;110.95;;
1140;SDS011;559;48.628;8.924;2024-03-08T07:20:24;114.07;;;106.53;;
1140;SDS011;559;48.628;8.924;2024-03-08T07:22:51;111.65;;;103.35;;
1140;SDS011;559;48.628;8.924;2024-03-08T07:25:19;119.05;;;110.57;;
1140;SDS011;559;48.628;8.924;2024-03-08T07:27:46;122.35;;;113.38;;
1140;SDS011;559;48.628;8.924;2024-03-08T07:30:15;111.32;;;103.25;;
1140;SDS011;559;48.628;8.924;2024-03-08T07:33:03;115.60;;;107.10;;
1140;SDS011;559;48.628;8.924;2024-03-08T07:35:29;109.95;;;102.00;;
1140;SDS011;559;48.628;8.924;2024-03-08T07:37:56;116.07;;;107.68;;
1140;SDS011;559;48.628;8.924;2024-03-08T07:40:22;115.03;;;106.88;;
1140;SDS011;559;48.628;8.924;2024-03-08T07:42:49;112.20;;;103.90;;
1140;SDS011;559;48.628;8.924;2024-03-08T07:45:17;111.43;;;103.07;;
1140;SDS011;559;48.628;8.924;2024-03-08T07:47:43;110.45;;;102.50;;
1140;SDS011;559;48.628;8.924;2024-03-08T07:50:10;110.10;;;102.32;;
1140;SDS011;559;48.628;8.924;2024-03-08T07:52:40;105.07;;;97.45;;
1140;SDS011;559;48.628;8.924;2024-03-08T07:55:07;108.85;;;101.15;;
1140;SDS011;559;48.628;8.924;2024-03-08T07:57:35;106.72;;;98.70;;
1140;SDS011;559;48.628;8.924;2024-03-08T08:00:03;102.80;;;95.13;;
1140;SDS011;559;48.628;8.924;2024-03-08T08:02:33;100.28;;;92.72;;
1140;SDS011;559;48.628;8.924;2024-03-08T08:05:00;104.40;;;96.15;;
1140;SDS011;559;48.628;8.924;2024-03-08T08:07:27;105.10;;;97.50;;
1140;SDS011;559;48.628;8.924;2024-03-08T08:09:53;105.65;;;97.75;;
1140;SDS011;559;48.628;8.924;2024-03-08T08:12:20;99.88;;;92.55;;
1140;SDS011;559;48.628;8.924;2024-03-08T08:14:46;100.68;;;93.20;;
1140;SDS011;559;48.628;8.924;2024-03-08T08:17:13;105.25;;;97.45;;
1140;SDS011;559;48.628;8.924;2024-03-08T08:19:41;101.78;;;94.28;;
1140;SDS011;559;48.628;8.924;2024-03-08T08:22:08;105.35;;;97.60;;
1140;SDS011;559;48.628;8.924;2024-03-08T08:24:35;93.97;;;87.22;;
1140;SDS011;559;48.628;8.924;2024-03-08T08:27:02;88.65;;;81.65;;
1140;SDS011;559;48.628;8.924;2024-03-08T08:29:28;85.57;;;78.38;;
1140;SDS011;559;48.628;8.924;2024-03-08T08:31:57;76.25;;;70.45;;
1140;SDS011;559;48.628;8.924;2024-03-08T08:34:24;73.53;;;68.13;;
1140;SDS011;559;48.628;8.924;2024-03-08T08:36:52;72.45;;;67.55;;
1140;SDS011;559;48.628;8.924;2024-03-08T08:39:19;69.63;;;64.43;;
1140;SDS011;559;48.628;8.924;2024-03-08T08:41:47;68.55;;;63.47;;
1140;SDS011;559;48.628;8.924;2024-03-08T08:44:14;68.93;;;63.90;;
1140;SDS011;559;48.628;8.924;2024-03-08T08:46:40;65.22;;;60.60;;
1140;SDS011;559;48.628;8.924;2024-03-08T08:49:07;63.72;;;59.28;;
1140;SDS011;559;48.628;8.924;2024-03-08T08:51:35;63.13;;;58.75;;
1140;SDS011;559;48.628;8.924;2024-03-08T08:54:03;61.78;;;57.53;;
1140;SDS011;559;48.628;8.924;2024-03-08T08:56:31;63.95;;;59.30;;
1140;SDS011;559;48.628;8.924;2024-03-08T08:58:57;60.00;;;55.85;;
1140;SDS011;559;48.628;8.924;2024-03-08T09:01:24;59.60;;;55.50;;
1140;SDS011;559;48.628;8.924;2024-03-08T09:03:50;57.83;;;53.80;;
1140;SDS011;559;48.628;8.924;2024-03-08T09:06:17;58.72;;;54.75;;
1140;SDS011;559;48.628;8.924;2024-03-08T09:08:43;58.15;;;54.10;;
1140;SDS011;559;48.628;8.924;2024-03-08T09:11:12;57.72;;;53.63;;
1140;SDS011;559;48.628;8.924;2024-03-08T09:13:39;56.92;;;52.92;;
1140;SDS011;559;48.628;8.924;2024-03-08T09:16:05;58.85;;;54.92;;
1140;SDS011;559;48.628;8.924;2024-03-08T09:18:32;61.42;;;56.97;;
1140;SDS011;559;48.628;8.924;2024-03-08T09:20:58;57.97;;;53.95;;
1140;SDS011;559;48.628;8.924;2024-03-08T09:23:25;59.60;;;55.13;;
1140;SDS011;559;48.628;8.924;2024-03-08T09:25:55;59.53;;;55.38;;
1140;SDS011;559;48.628;8.924;2024-03-08T09:28:23;56.58;;;52.88;;
1140;SDS011;559;48.628;8.924;2024-03-08T09:30:50;53.55;;;49.88;;
1140;SDS011;559;48.628;8.924;2024-03-08T09:33:16;53.70;;;50.15;;
1140;SDS011;559;48.628;8.924;2024-03-08T09:35:44;52.42;;;49.15;;
1140;SDS011;559;48.628;8.924;2024-03-08T09:38:12;55.08;;;51.08;;
1140;SDS011;559;48.628;8.924;2024-03-08T09:40:38;53.45;;;49.95;;
1140;SDS011;559;48.628;8.924;2024-03-08T09:43:05;53.97;;;50.47;;
1140;SDS011;559;48.628;8.924;2024-03-08T09:45:33;52.70;;;48.85;;
1140;SDS011;559;48.628;8.924;2024-03-08T09:48:04;51.38;;;47.83;;
1140;SDS011;559;48.628;8.924;2024-03-08T09:50:32;54.83;;;50.97;;
1140;SDS011;559;48.628;8.924;2024-03-08T09:52:59;51.28;;;48.00;;
1140;SDS011;559;48.628;8.924;2024-03-08T09:55:26;50.95;;;47.58;;
1140;SDS011;559;48.628;8.924;2024-03-08T09:57:59;48.88;;;46.17;;
1140;SDS011;559;48.628;8.924;2024-03-08T10:00:48;49.15;;;46.15;;
1140;SDS011;559;48.628;8.924;2024-03-08T10:03:14;50.15;;;46.97;;
1140;SDS011;559;48.628;8.924;2024-03-08T10:05:41;47.83;;;44.58;;
1140;SDS011;559;48.628;8.924;2024-03-08T10:08:09;48.40;;;45.47;;
1140;SDS011;559;48.628;8.924;2024-03-08T10:10:36;48.78;;;45.58;;
1140;SDS011;559;48.628;8.924;2024-03-08T10:13:04;48.20;;;45.03;;
1140;SDS011;559;48.628;8.924;2024-03-08T10:15:31;48.55;;;45.58;;
1140;SDS011;559;48.628;8.924;2024-03-08T10:17:59;50.08;;;46.97;;
1140;SDS011;559;48.628;8.924;2024-03-08T10:20:27;47.17;;;44.28;;
1140;SDS011;559;48.628;8.924;2024-03-08T10:22:54;46.92;;;44.17;;
1140;SDS011;559;48.628;8.924;2024-03-08T10:25:20;46.33;;;43.53;;
1140;SDS011;559;48.628;8.924;2024-03-08T10:27:47;47.40;;;44.70;;
1140;SDS011;559;48.628;8.924;2024-03-08T10:30:14;49.60;;;46.38;;
1140;SDS011;559;48.628;8.924;2024-03-08T10:32:41;47.38;;;44.42;;
1140;SDS011;559;48.628;8.924;2024-03-08T10:35:09;48.55;;;45.35;;
1140;SDS011;559;48.628;8.924;2024-03-08T10:37:39;52.75;;;48.90;;
1140;SDS011;559;48.628;8.924;2024-03-08T10:40:13;51.58;;;48.30;;
1140;SDS011;559;48.628;8.924;2024-03-08T10:42:45;51.72;;;48.45;;
1140;SDS011;559;48.628;8.924;2024-03-08T10:45:19;50.67;;;47.47;;
1140;SDS011;559;48.628;8.924;2024-03-08T10:47:50;52.42;;;49.10;;
1140;SDS011;559;48.628;8.924;2024-03-08T10:50:24;48.53;;;45.65;;
1140;SDS011;559;48.628;8.924;2024-03-08T10:52:52;48.45;;;45.72;;
1140;SDS011;559;48.628;8.924;2024-03-08T10:55:18;46.47;;;43.30;;
1140;SDS011;559;48.628;8.924;2024-03-08T10:57:45;45.17;;;42.67;;
1140;SDS011;559;48.628;8.924;2024-03-08T11:00:12;45.20;;;42.33;;
1140;SDS011;559;48.628;8.924;2024-03-08T11:02:43;44.33;;;41.70;;
1140;SDS011;559;48.628;8.924;2024-03-08T11:05:09;44.08;;;41.58;;
1140;SDS011;559;48.628;8.924;2024-03-08T11:07:41;45.22;;;42.40;;
1140;SDS011;559;48.628;8.924;2024-03-08T11:10:18;43.60;;;41.10;;
1140;SDS011;559;48.628;8.924;2024-03-08T11:12:45;42.60;;;40.25;;
1140;SDS011;559;48.628;8.924;2024-03-08T11:15:13;42.22;;;39.97;;
1140;SDS011;559;48.628;8.924;2024-03-08T11:17:47;39.42;;;37.17;;
1140;SDS011;559;48.628;8.924;2024-03-08T11:20:16;35.00;;;32.90;;
1140;SDS011;559;48.628;8.924;2024-03-08T11:22:50;33.70;;;31.40;;
1140;SDS011;559;48.628;8.924;2024-03-08T11:25:31;30.95;;;29.05;;
1140;SDS011;559;48.628;8.924;2024-03-08T11:28:14;31.92;;;29.98;;
1140;SDS011;559;48.628;8.924;2024-03-08T11:30:44;30.58;;;28.48;;
1140;SDS011;559;48.628;8.924;2024-03-08T11:33:13;29.88;;;28.05;;
1140;SDS011;559;48.628;8.924;2024-03-08T11:35:40;31.25;;;29.38;;
1140;SDS011;559;48.628;8.924;2024-03-08T11:38:12;30.27;;;28.40;;
1140;SDS011;559;48.628;8.924;2024-03-08T11:40:39;25.45;;;23.73;;
1140;SDS011;559;48.628;8.924;2024-03-08T11:43:07;26.83;;;24.13;;
1140;SDS011;559;48.628;8.924;2024-03-08T11:45:34;35.33;;;32.67;;
1140;SDS011;559;48.628;8.924;2024-03-08T11:48:01;43.20;;;40.25;;
1140;SDS011;559;48.628;8.924;2024-03-08T11:50:29;49.00;;;45.80;;
1140;SDS011;559;48.628;8.924;2024-03-08T11:53:00;52.25;;;48.90;;
1140;SDS011;559;48.628;8.924;2024-03-08T11:55:28;50.75;;;47.85;;
1140;SDS011;559;48.628;8.924;2024-03-08T11:57:59;69.05;;;63.95;;
1140;SDS011;559;48.628;8.924;2024-03-08T12:00:26;60.28;;;56.10;;
1140;SDS011;559;48.628;8.924;2024-03-08T12:03:03;58.55;;;54.63;;
1140;SDS011;559;48.628;8.924;2024-03-08T12:05:30;52.75;;;49.45;;
1140;SDS011;559;48.628;8.924;2024-03-08T12:07:58;57.20;;;53.30;;
1140;SDS011;559;48.628;8.924;2024-03-08T12:10:25;55.95;;;52.63;;
1140;SDS011;559;48.628;8.924;2024-03-08T12:12:54;55.13;;;52.05;;
1140;SDS011;559;48.628;8.924;2024-03-08T12:15:21;52.08;;;49.40;;
1140;SDS011;559;48.628;8.924;2024-03-08T12:17:49;55.80;;;52.38;;
1140;SDS011;559;48.628;8.924;2024-03-08T12:20:17;58.35;;;54.80;;
1140;SDS011;559;48.628;8.924;2024-03-08T12:22:44;58.53;;;54.75;;
1140;SDS011;559;48.628;8.924;2024-03-08T12:25:11;59.45;;;56.15;;
1140;SDS011;559;48.628;8.924;2024-03-08T12:27:38;56.13;;;52.95;;
1140;SDS011;559;48.628;8.924;2024-03-08T12:30:17;42.95;;;40.53;;
1140;SDS011;559;48.628;8.924;2024-03-08T12:32:47;42.33;;;39.53;;
1140;SDS011;559;48.628;8.924;2024-03-08T12:35:21;42.70;;;40.20;;
1140;SDS011;559;48.628;8.924;2024-03-08T12:37:49;52.55;;;49.58;;
1140;SDS011;559;48.628;8.924;2024-03-08T12:40:16;55.88;;;52.58;;
1140;SDS011;559;48.628;8.924;2024-03-08T12:42:43;46.97;;;44.38;;
1140;SDS011;559;48.628;8.924;2024-03-08T12:45:12;46.92;;;44.30;;
1140;SDS011;559;48.628;8.924;2024-03-08T12:47:40;56.05;;;52.65;;
1140;SDS011;559;48.628;8.924;2024-03-08T12:50:08;52.67;;;49.78;;
1140;SDS011;559;48.628;8.924;2024-03-08T12:52:35;50.70;;;47.95;;
1140;SDS011;559;48.628;8.924;2024-03-08T12:55:02;59.08;;;55.75;;
1140;SDS011;559;48.628;8.924;2024-03-08T12:57:31;54.58;;;51.42;;
1140;SDS011;559;48.628;8.924;2024-03-08T12:59:58;44.17;;;41.67;;
1140;SDS011;559;48.628;8.924;2024-03-08T13:02:25;51.00;;;48.40;;
1140;SDS011;559;48.628;8.924;2024-03-08T13:04:53;47.83;;;45.13;;
1140;SDS011;559;48.628;8.924;2024-03-08T13:07:22;52.20;;;49.10;;
1140;SDS011;559;48.628;8.924;2024-03-08T13:09:50;57.75;;;54.50;;
1140;SDS011;559;48.628;8.924;2024-03-08T13:12:17;56.42;;;53.40;;
1140;SDS011;559;48.628;8.924;2024-03-08T13:14:45;54.63;;;51.80;;
1140;SDS011;559;48.628;8.924;2024-03-08T13:17:11;49.60;;;46.47;;
1140;SDS011;559;48.628;8.924;2024-03-08T13:19:38;52.08;;;48.85;;
1140;SDS011;559;48.628;8.924;2024-03-08T13:22:06;41.85;;;39.45;;
1140;SDS011;559;48.628;8.924;2024-03-08T13:24:32;42.40;;;39.90;;
1140;SDS011;559;48.628;8.924;2024-03-08T13:26:59;29.83;;;27.60;;
1140;SDS011;559;48.628;8.924;2024-03-08T13:29:26;34.83;;;32.33;;
1140;SDS011;559;48.628;8.924;2024-03-08T13:31:52;32.05;;;29.85;;
1140;SDS011;559;48.628;8.924;2024-03-08T13:34:21;29.88;;;27.48;;
1140;SDS011;559;48.628;8.924;2024-03-08T13:36:54;38.58;;;36.13;;
1140;SDS011;559;48.628;8.924;2024-03-08T13:39:26;31.10;;;29.05;;
1140;SDS011;559;48.628;8.924;2024-03-08T13:42:01;41.60;;;39.10;;
1140;SDS011;559;48.628;8.924;2024-03-08T13:44:30;39.88;;;37.53;;
1140;SDS011;559;48.628;8.924;2024-03-08T13:46:56;50.50;;;47.70;;
1140;SDS011;559;48.628;8.924;2024-03-08T13:49:24;52.70;;;49.88;;
1140;SDS011;559;48.628;8.924;2024-03-08T13:51:51;40.75;;;38.25;;
1140;SDS011;559;48.628;8.924;2024-03-08T13:54:19;44.38;;;41.88;;
1140;SDS011;559;48.628;8.924;2024-03-08T13:56:47;43.78;;;41.47;;
1140;SDS011;559;48.628;8.924;2024-03-08T13:59:14;41.30;;;38.80;;
1140;SDS011;559;48.628;8.924;2024-03-08T14:01:41;32.00;;;29.88;;
1140;SDS011;559;48.628;8.924;2024-03-08T14:04:08;36.05;;;33.60;;
1140;SDS011;559;48.628;8.924;2024-03-08T14:06:35;38.15;;;35.67;;
1140;SDS011;559;48.628;8.924;2024-03-08T14:09:02;28.80;;;26.80;;
1140;SDS011;559;48.628;8.924;2024-03-08T14:11:28;26.25;;;24.40;;
1140;SDS011;559;48.628;8.924;2024-03-08T14:13:56;42.67;;;39.88;;
1140;SDS011;559;48.628;8.924;2024-03-08T14:16:23;37.67;;;34.85;;
1140;SDS011;559;48.628;8.924;2024-03-08T14:18:50;35.47;;;33.22;;
1140;SDS011;559;48.628;8.924;2024-03-08T14:21:16;40.95;;;38.25;;
1140;SDS011;559;48.628;8.924;2024-03-08T14:23:43;47.35;;;44.42;;
1140;SDS011;559;48.628;8.924;2024-03-08T14:26:09;38.08;;;35.67;;
1140;SDS011;559;48.628;8.924;2024-03-08T14:28:36;43.40;;;41.00;;
1140;SDS011;559;48.628;8.924;2024-03-08T14:31:05;34.05;;;31.85;;
1140;SDS011;559;48.628;8.924;2024-03-08T14:33:36;41.05;;;38.60;;
1140;SDS011;559;48.628;8.924;2024-03-08T14:36:03;43.03;;;40.33;;
1140;SDS011;559;48.628;8.924;2024-03-08T14:38:31;41.35;;;38.63;;
1140;SDS011;559;48.628;8.924;2024-03-08T14:40:57;38.33;;;35.72;;
1140;SDS011;559;48.628;8.924;2024-03-08T14:43:24;40.60;;;37.95;;
1140;SDS011;559;48.628;8.924;2024-03-08T14:45:51;35.28;;;33.13;;
1140;SDS011;559;48.628;8.924;2024-03-08T14:48:19;38.40;;;36.17;;
1140;SDS011;559;48.628;8.924;2024-03-08T14:50:46;34.33;;;32.05;;
1140;SDS011;559;48.628;8.924;2024-03-08T14:53:13;27.10;;;24.63;;
1140;SDS011;559;48.628;8.924;2024-03-08T14:55:40;24.13;;;21.95;;